Time;durP1;ratioP1;P1;durP2;ratioP2;P2;SDS_P1;SDS_P2;PMS_P1;PMS_P2;Temp;Humidity;BMP_temperature;BMP_pressure;BME280_temperature;BME280_humidity;BME280_pressure;Samples;Min_cycle;Max_cycle;Signal;HPM_P1;HPM_P2
2021/05/06 00:04:37;;;;;;;1.63;1.52;;;5.80;99.90;;;;;;5098645;28;20284;-80
2021/05/06 00:32:07;;;;;;;3.05;2.00;;;6.10;99.90;;;;;;5071948;28;20326;-80
2021/05/06 00:34:34;;;;;;;4.22;2.30;;;6.20;99.90;;;;;;5097875;28;20248;-80
2021/05/06 00:37:00;;;;;;;4.03;2.28;;;6.30;99.90;;;;;;5097717;28;20200;-80
2021/05/06 00:39:28;;;;;;;2.88;2.47;;;6.30;99.90;;;;;;5097914;28;20209;-80
2021/05/06 00:42:15;;;;;;;2.90;1.73;;;6.30;99.90;;;;;;5097413;28;20637;-80
2021/05/06 00:56:20;;;;;;;4.05;2.58;;;6.10;99.90;;;;;;5048477;28;20218;-79
2021/05/06 00:59:23;;;;;;;2.65;2.28;;;6.10;99.90;;;;;;5097347;28;20272;-79
2021/05/06 01:02:03;;;;;;;3.65;3.35;;;6.10;99.90;;;;;;5097341;28;20223;-79
2021/05/06 01:04:39;;;;;;;3.75;2.53;;;6.20;99.90;;;;;;5097325;28;20262;-79
2021/05/06 01:07:20;;;;;;;2.25;2.05;;;6.10;99.90;;;;;;5096635;28;20695;-79
2021/05/06 01:09:55;;;;;;;2.63;2.42;;;6.10;99.90;;;;;;5096749;28;20264;-79
2021/05/06 01:12:22;;;;;;;2.35;2.25;;;6.10;99.90;;;;;;5096608;28;20246;-79
2021/05/06 01:14:49;;;;;;;2.33;2.10;;;6.20;99.90;;;;;;5096573;28;20243;-78
2021/05/06 01:17:15;;;;;;;2.70;2.50;;;6.20;99.90;;;;;;5097258;28;20215;-79
2021/05/06 01:19:42;;;;;;;2.40;1.83;;;6.30;99.90;;;;;;5097012;28;20204;-79
2021/05/06 01:22:09;;;;;;;2.10;2.00;;;6.30;99.90;;;;;;5096487;28;20224;-79
2021/05/06 01:24:35;;;;;;;3.55;2.20;;;6.30;99.90;;;;;;5096602;28;20235;-79
2021/05/06 01:27:05;;;;;;;2.35;2.20;;;6.30;99.90;;;;;;5096815;28;20204;-79
2021/05/06 01:29:35;;;;;;;5.10;2.65;;;6.30;99.90;;;;;;5096494;28;20214;-79
2021/05/06 01:32:12;;;;;;;2.35;2.15;;;6.30;99.90;;;;;;5096342;28;20270;-79
2021/05/06 01:34:39;;;;;;;2.08;1.85;;;6.30;99.90;;;;;;5096216;28;20726;-79
2021/05/06 01:37:10;;;;;;;5.45;5.05;;;6.40;99.90;;;;;;5096692;28;20208;-79
2021/05/06 01:39:51;;;;;;;2.15;2.05;;;6.30;99.90;;;;;;5096985;28;20645;-79
2021/05/06 01:42:19;;;;;;;2.20;2.00;;;6.40;99.90;;;;;;5096356;28;20565;-79
2021/05/06 01:45:11;;;;;;;1.77;1.67;;;6.30;99.90;;;;;;5096259;28;20722;-79
2021/05/06 01:47:39;;;;;;;2.78;2.58;;;6.20;99.90;;;;;;5096216;28;20235;-79
2021/05/06 01:50:29;;;;;;;3.05;2.75;;;6.40;99.90;;;;;;5096343;28;20245;-79
2021/05/06 02:01:07;;;;;;;1.90;1.80;;;6.40;99.90;;;;;;5095544;28;20711;-79
2021/05/06 02:03:34;;;;;;;2.40;2.28;;;6.40;99.90;;;;;;5096556;28;20208;-79
2021/05/06 02:06:00;;;;;;;3.08;2.88;;;6.50;99.90;;;;;;5096511;28;20229;-79
2021/05/06 02:08:28;;;;;;;2.83;2.17;;;6.50;99.90;;;;;;5097852;28;20269;-79
2021/05/06 02:10:56;;;;;;;2.67;2.47;;;6.50;99.90;;;;;;5100441;28;20207;-79
2021/05/06 02:13:22;;;;;;;5.75;2.05;;;6.50;99.90;;;;;;5099734;28;20200;-79
2021/05/06 02:15:52;;;;;;;3.35;2.10;;;6.50;99.90;;;;;;5099812;28;20605;-79
2021/05/06 02:18:19;;;;;;;3.67;3.17;;;6.50;99.90;;;;;;5100443;28;20685;-79
2021/05/06 02:20:47;;;;;;;3.70;2.22;;;6.60;99.90;;;;;;5099827;28;20215;-79
2021/05/06 02:23:13;;;;;;;2.85;2.08;;;6.60;99.90;;;;;;5099144;28;20307;-79
2021/05/06 02:25:39;;;;;;;5.20;2.95;;;6.70;99.90;;;;;;5099235;28;20224;-78
2021/05/06 02:28:06;;;;;;;2.58;2.38;;;6.70;99.90;;;;;;5098637;28;20200;-79
2021/05/06 02:30:33;;;;;;;2.35;2.03;;;6.80;99.90;;;;;;5098961;28;20204;-79
2021/05/06 02:32:59;;;;;;;3.00;2.67;;;6.70;99.90;;;;;;5100122;28;20197;-79
2021/05/06 02:35:25;;;;;;;2.53;2.10;;;6.70;99.90;;;;;;5100002;28;20526;-79
2021/05/06 02:37:51;;;;;;;2.88;2.03;;;6.60;99.90;;;;;;5099519;28;20254;-79
2021/05/06 02:40:17;;;;;;;5.40;2.20;;;6.60;99.90;;;;;;5100236;28;20207;-79
2021/05/06 02:42:44;;;;;;;2.40;2.00;;;6.60;99.90;;;;;;5098621;28;20265;-79
2021/05/06 02:45:11;;;;;;;3.28;2.97;;;6.60;99.90;;;;;;5099397;28;20231;-79
2021/05/06 02:47:38;;;;;;;3.63;2.92;;;6.60;99.90;;;;;;5099559;28;20212;-79
2021/05/06 02:50:08;;;;;;;3.10;2.33;;;6.60;99.90;;;;;;5100080;28;20712;-79
2021/05/06 02:52:36;;;;;;;3.85;3.05;;;6.70;99.90;;;;;;5099393;28;20200;-79
2021/05/06 02:55:08;;;;;;;2.08;1.98;;;6.60;99.90;;;;;;5099615;28;20220;-79
2021/05/06 02:57:40;;;;;;;2.97;2.53;;;6.60;99.90;;;;;;5099155;28;20201;-79
2021/05/06 03:02:55;;;;;;;3.97;2.50;;;6.60;99.90;;;;;;5098464;28;20226;-79
2021/05/06 03:05:24;;;;;;;2.35;2.15;;;6.60;99.90;;;;;;5099058;28;20263;-79
2021/05/06 03:07:59;;;;;;;2.88;1.90;;;6.60;99.90;;;;;;5099028;28;20418;-79
2021/05/06 03:10:38;;;;;;;3.85;3.55;;;6.60;99.90;;;;;;5099100;28;20211;-79
2021/05/06 03:13:18;;;;;;;3.90;2.25;;;6.60;99.90;;;;;;5098606;28;20199;-79
2021/05/06 03:24:06;;;;;;;4.18;2.38;;;6.30;99.90;;;;;;5024071;28;21650;-80
2021/05/06 03:26:33;;;;;;;3.28;2.80;;;6.10;99.90;;;;;;5099416;28;20208;-81
2021/05/06 03:29:02;;;;;;;4.22;2.95;;;6.00;99.90;;;;;;5099773;28;20744;-81
2021/05/06 03:31:50;;;;;;;4.30;3.03;;;5.90;99.90;;;;;;5099843;28;20208;-81
2021/05/06 03:42:34;;;;;;;2.55;2.35;;;5.40;99.90;;;;;;5099114;28;20226;-81
2021/05/06 03:45:21;;;;;;;3.00;2.78;;;5.40;99.90;;;;;;5099287;28;20230;-81
2021/05/06 04:17:55;;;;;;;5.65;4.70;;;5.70;99.90;;;;;;5097756;28;20211;-80
2021/05/06 04:26:07;;;;;;;6.07;4.95;;;5.60;99.90;;;;;;5098439;28;20226;-80
2021/05/06 04:37:00;;;;;;;8.43;5.22;;;5.60;99.90;;;;;;5098097;28;20207;-79
2021/05/06 04:39:44;;;;;;;7.03;6.13;;;5.60;99.90;;;;;;5097609;28;20238;-80
2021/05/06 04:45:40;;;;;;;6.53;3.75;;;5.60;99.90;;;;;;5098130;28;20219;-80
2021/05/06 05:18:05;;;;;;;4.45;3.90;;;6.10;99.90;;;;;;4895835;29;20251;-85
2021/05/06 05:55:35;;;;;;;7.70;5.25;;;7.20;99.90;;;;;;5037919;28;20252;-85
2021/05/06 05:58:03;;;;;;;6.75;5.20;;;7.20;99.90;;;;;;5036426;28;20214;-85
2021/05/06 06:00:29;;;;;;;5.47;5.07;;;7.20;99.90;;;;;;5036360;28;20256;-85
2021/05/06 06:02:55;;;;;;;6.05;4.97;;;7.20;99.90;;;;;;5035829;28;20714;-85
2021/05/06 06:05:23;;;;;;;5.93;4.22;;;7.20;99.90;;;;;;5036089;28;20227;-85
2021/05/06 06:07:50;;;;;;;3.20;2.63;;;7.20;99.90;;;;;;5036241;28;20214;-85
2021/05/06 06:10:17;;;;;;;3.88;2.83;;;7.20;99.90;;;;;;5035957;28;20202;-85
2021/05/06 06:12:43;;;;;;;3.60;3.40;;;7.20;99.90;;;;;;5035351;28;20573;-85
2021/05/06 06:15:14;;;;;;;6.82;3.58;;;7.30;99.90;;;;;;5035915;28;20257;-85
2021/05/06 06:20:37;;;;;;;2.33;2.13;;;7.40;99.90;;;;;;5044252;28;20205;-84
2021/05/06 06:23:04;;;;;;;6.15;3.50;;;7.40;99.90;;;;;;5038580;28;20727;-85
2021/05/06 06:25:34;;;;;;;6.93;2.58;;;7.40;99.90;;;;;;5032723;28;20225;-85
2021/05/06 06:28:01;;;;;;;3.55;2.40;;;7.40;99.90;;;;;;5027430;28;20214;-85
2021/05/06 06:30:42;;;;;;;3.00;2.70;;;7.30;99.90;;;;;;5022342;28;20668;-85
2021/05/06 06:33:08;;;;;;;3.97;2.65;;;7.30;99.90;;;;;;5025306;28;20210;-86
2021/05/06 06:35:36;;;;;;;3.75;3.00;;;7.40;99.90;;;;;;5022928;28;20590;-86
2021/05/06 06:38:02;;;;;;;3.45;3.15;;;7.50;99.90;;;;;;5021086;28;20257;-85
2021/05/06 06:40:29;;;;;;;3.85;3.55;;;7.60;99.90;;;;;;5026835;28;20634;-86
2021/05/06 06:42:55;;;;;;;9.27;4.57;;;7.70;99.90;;;;;;5024441;28;20227;-86
2021/05/06 06:45:21;;;;;;;4.93;3.67;;;7.80;99.90;;;;;;5025796;28;20639;-86
2021/05/06 06:47:53;;;;;;;3.63;3.20;;;7.80;99.90;;;;;;5031964;28;20202;-85
2021/05/06 06:50:19;;;;;;;3.78;2.65;;;8.00;99.90;;;;;;5045685;28;20206;-84
2021/05/06 06:52:48;;;;;;;3.42;2.60;;;8.00;99.90;;;;;;5041748;28;20594;-84
2021/05/06 06:55:25;;;;;;;3.97;2.58;;;8.10;99.90;;;;;;5045320;28;20238;-86
2021/05/06 06:57:52;;;;;;;3.28;2.40;;;8.10;99.90;;;;;;5037665;28;20244;-86
2021/05/06 07:00:19;;;;;;;3.20;2.35;;;8.10;99.90;;;;;;5038833;28;20206;-85
2021/05/06 07:02:45;;;;;;;2.65;2.45;;;8.10;99.90;;;;;;5037800;28;20222;-86
2021/05/06 07:05:13;;;;;;;2.55;2.35;;;8.10;99.90;;;;;;5037176;28;20233;-86
2021/05/06 07:07:39;;;;;;;2.33;1.70;;;8.10;99.90;;;;;;5035025;28;20702;-83
2021/05/06 07:10:06;;;;;;;8.05;3.58;;;8.20;99.90;;;;;;5036545;28;20207;-85
2021/05/06 07:12:32;;;;;;;3.88;3.63;;;8.30;99.90;;;;;;5036112;28;20202;-85
2021/05/06 07:14:58;;;;;;;2.53;2.13;;;8.20;99.90;;;;;;5036211;28;20268;-85
2021/05/06 07:17:30;;;;;;;2.60;2.30;;;8.30;99.90;;;;;;5034866;28;20218;-84
2021/05/06 07:19:56;;;;;;;6.05;2.67;;;8.30;99.90;;;;;;5034081;28;20206;-86
2021/05/06 07:22:23;;;;;;;2.75;2.50;;;8.40;99.90;;;;;;5033646;28;20230;-86
2021/05/06 07:24:49;;;;;;;2.55;1.95;;;8.50;99.90;;;;;;5034331;28;20723;-86
2021/05/06 07:27:15;;;;;;;3.10;2.80;;;8.50;99.90;;;;;;5035393;28;20741;-86
2021/05/06 07:29:41;;;;;;;2.78;1.85;;;8.40;99.90;;;;;;5036001;28;20214;-86
2021/05/06 07:32:09;;;;;;;2.92;2.72;;;8.60;99.90;;;;;;5036229;28;20225;-86
2021/05/06 07:34:35;;;;;;;3.38;3.08;;;8.60;99.90;;;;;;5034518;28;20237;-85
2021/05/06 07:37:01;;;;;;;2.80;2.40;;;8.70;99.90;;;;;;5034347;28;20284;-86
2021/05/06 07:39:28;;;;;;;7.18;3.38;;;8.80;99.90;;;;;;5033903;28;20218;-85
2021/05/06 07:41:55;;;;;;;2.83;2.63;;;8.90;99.90;;;;;;5033544;28;20234;-85
2021/05/06 07:44:21;;;;;;;4.85;2.60;;;9.00;99.90;;;;;;5033812;28;20211;-86
2021/05/06 07:46:47;;;;;;;2.72;2.47;;;9.00;99.90;;;;;;5033912;28;20210;-86
2021/05/06 07:49:13;;;;;;;3.95;2.45;;;9.00;99.90;;;;;;5033748;28;20203;-86
2021/05/06 07:51:39;;;;;;;3.97;2.47;;;9.10;99.90;;;;;;5033697;28;20548;-86
2021/05/06 07:54:07;;;;;;;3.83;2.08;;;9.30;99.90;;;;;;5034011;28;20226;-86
2021/05/06 07:56:34;;;;;;;4.32;3.17;;;9.50;99.90;;;;;;5033673;28;20203;-86
2021/05/06 07:59:00;;;;;;;4.65;2.85;;;9.50;99.90;;;;;;5033771;28;20695;-86
2021/05/06 08:01:26;;;;;;;4.15;2.47;;;9.60;99.90;;;;;;5032881;28;20231;-86
2021/05/06 08:03:53;;;;;;;2.10;1.90;;;9.70;99.90;;;;;;5033646;28;20203;-87
2021/05/06 08:06:20;;;;;;;5.00;2.55;;;9.60;99.90;;;;;;5032361;28;20470;-86
2021/05/06 08:08:47;;;;;;;2.42;2.22;;;9.60;99.90;;;;;;5033260;28;20301;-86
2021/05/06 08:11:13;;;;;;;6.72;1.88;;;9.70;99.90;;;;;;5033595;28;20208;-86
2021/05/06 08:13:41;;;;;;;3.28;2.65;;;9.80;99.90;;;;;;5032972;28;20227;-86
2021/05/06 08:16:07;;;;;;;2.58;2.38;;;9.70;99.90;;;;;;5032940;28;20317;-86
2021/05/06 08:18:33;;;;;;;3.05;2.17;;;9.90;99.90;;;;;;5032925;28;20208;-85
2021/05/06 08:20:59;;;;;;;2.35;2.15;;;9.80;99.90;;;;;;5033044;28;20219;-86
2021/05/06 08:23:26;;;;;;;3.30;1.87;;;10.00;99.90;;;;;;5032848;28;20208;-86
2021/05/06 08:25:52;;;;;;;2.35;2.10;;;10.20;99.90;;;;;;5032869;28;20542;-86
2021/05/06 08:28:18;;;;;;;3.40;2.87;;;10.30;99.90;;;;;;5032831;28;20215;-86
2021/05/06 08:30:45;;;;;;;5.37;2.03;;;10.40;99.90;;;;;;5032560;28;20460;-86
2021/05/06 08:33:11;;;;;;;4.47;2.50;;;10.50;99.90;;;;;;5032544;28;20487;-86
2021/05/06 08:35:38;;;;;;;2.58;1.92;;;10.50;99.90;;;;;;5032716;28;20230;-86
2021/05/06 08:38:04;;;;;;;4.77;2.97;;;10.50;99.90;;;;;;5032789;28;20579;-86
2021/05/06 08:40:30;;;;;;;5.20;3.23;;;10.50;99.90;;;;;;5033031;28;20452;-86
2021/05/06 08:42:58;;;;;;;5.20;2.50;;;10.50;99.90;;;;;;5032382;28;20967;-86
2021/05/06 08:45:28;;;;;;;7.95;2.63;;;10.60;99.90;;;;;;5032551;28;20235;-86
2021/05/06 08:47:56;;;;;;;2.75;2.30;;;10.60;99.90;;;;;;5032801;28;20192;-86
2021/05/06 08:50:23;;;;;;;8.18;3.05;;;10.70;99.90;;;;;;5032561;28;20219;-87
2021/05/06 08:52:50;;;;;;;3.80;3.10;;;10.70;99.70;;;;;;5032276;28;20231;-86
2021/05/06 08:55:17;;;;;;;4.53;2.90;;;10.70;99.90;;;;;;5032177;28;20244;-86
2021/05/06 08:57:44;;;;;;;3.13;2.83;;;10.80;99.90;;;;;;5032321;28;20483;-86
2021/05/06 09:00:11;;;;;;;3.53;2.77;;;10.70;99.90;;;;;;5032381;28;20466;-86
2021/05/06 09:02:44;;;;;;;2.97;2.78;;;10.80;99.90;;;;;;5033577;28;20451;-86
2021/05/06 09:05:11;;;;;;;3.78;2.65;;;10.80;99.90;;;;;;5032403;28;20610;-86
2021/05/06 09:07:42;;;;;;;3.47;2.23;;;10.70;99.90;;;;;;5032204;28;20263;-86
2021/05/06 09:10:10;;;;;;;2.67;2.03;;;10.80;99.90;;;;;;5032410;28;20462;-86
2021/05/06 09:12:38;;;;;;;3.03;2.30;;;10.90;99.90;;;;;;5031927;28;20223;-86
2021/05/06 09:15:11;;;;;;;2.70;2.30;;;11.00;99.90;;;;;;5032127;28;20475;-86
2021/05/06 09:17:38;;;;;;;3.27;2.93;;;10.90;99.90;;;;;;5037278;28;20459;-83
2021/05/06 09:20:16;;;;;;;3.20;2.90;;;10.70;99.90;;;;;;5033539;28;20525;-87
2021/05/06 09:22:43;;;;;;;7.93;3.00;;;10.50;99.90;;;;;;5032528;28;20249;-88
2021/05/06 09:25:26;;;;;;;2.13;1.98;;;10.50;99.90;;;;;;5032352;28;20521;-88
2021/05/06 09:28:13;;;;;;;3.95;1.60;;;10.50;99.90;;;;;;5032541;28;20196;-88
2021/05/06 09:30:49;;;;;;;2.92;2.80;;;10.50;99.90;;;;;;5032274;28;20225;-88
2021/05/06 09:33:19;;;;;;;2.15;2.05;;;10.50;99.90;;;;;;5032958;28;20310;-87
2021/05/06 09:35:48;;;;;;;4.53;2.17;;;10.50;99.90;;;;;;5030932;28;20799;-86
2021/05/06 09:38:29;;;;;;;3.27;3.00;;;10.50;99.90;;;;;;5031296;28;20212;-88
2021/05/06 09:40:57;;;;;;;4.60;2.40;;;10.50;99.90;;;;;;5032018;28;20527;-88
2021/05/06 09:43:26;;;;;;;7.70;2.50;;;10.50;99.90;;;;;;5031793;28;20458;-88
2021/05/06 09:45:52;;;;;;;5.82;2.58;;;10.40;99.90;;;;;;5031461;28;20473;-87
2021/05/06 09:48:20;;;;;;;3.53;2.80;;;10.40;99.90;;;;;;5031455;28;20272;-89
2021/05/06 09:51:34;;;;;;;3.00;2.42;;;10.10;99.90;;;;;;5032700;28;20478;-89
2021/05/06 09:54:00;;;;;;;2.78;2.50;;;10.20;99.90;;;;;;4993903;28;20277;-85
2021/05/06 10:00:13;;;;;;;6.57;3.30;;;10.40;99.90;;;;;;5014261;28;20202;-87
2021/05/06 10:06:16;;;;;;;5.65;2.25;;;10.40;99.90;;;;;;5003824;28;20757;-87
2021/05/06 10:08:50;;;;;;;3.83;2.03;;;10.30;99.90;;;;;;5032468;28;20217;-89
2021/05/06 10:11:19;;;;;;;3.97;2.85;;;10.20;99.90;;;;;;5033760;28;20208;-88
2021/05/06 10:13:47;;;;;;;4.32;3.95;;;10.20;99.90;;;;;;5032358;28;20567;-87
2021/05/06 10:16:16;;;;;;;3.45;2.95;;;10.10;99.90;;;;;;5031558;28;20226;-87
2021/05/06 10:18:57;;;;;;;6.68;2.97;;;10.00;99.90;;;;;;5032633;28;20213;-87
2021/05/06 10:21:23;;;;;;;3.40;3.10;;;10.00;99.90;;;;;;5036484;28;20206;-86
2021/05/06 10:23:54;;;;;;;4.40;2.10;;;9.80;99.90;;;;;;5036573;28;20204;-85
2021/05/06 10:26:24;;;;;;;2.38;2.05;;;9.80;99.90;;;;;;5033840;28;20230;-86
2021/05/06 10:28:52;;;;;;;2.35;2.15;;;9.70;99.90;;;;;;5033587;28;20624;-86
2021/05/06 10:31:19;;;;;;;3.20;2.65;;;9.70;99.90;;;;;;5035709;28;20242;-85
2021/05/06 10:33:46;;;;;;;2.13;2.03;;;9.70;99.90;;;;;;5037030;28;20218;-87
2021/05/06 10:36:12;;;;;;;3.38;2.35;;;9.70;99.90;;;;;;5035151;28;20234;-87
2021/05/06 10:38:42;;;;;;;2.05;1.95;;;9.60;99.90;;;;;;5034891;28;20250;-89
2021/05/06 10:41:38;;;;;;;2.45;2.25;;;9.60;99.90;;;;;;5035224;28;20213;-88
2021/05/06 10:44:05;;;;;;;2.92;1.73;;;9.50;99.90;;;;;;5010831;28;20268;-88
2021/05/06 10:46:59;;;;;;;3.42;2.08;;;9.50;99.90;;;;;;5035189;28;20659;-87
2021/05/06 10:49:26;;;;;;;1.80;1.70;;;9.50;99.90;;;;;;5035260;28;20283;-85
2021/05/06 10:55:42;;;;;;;3.97;2.67;;;9.40;99.90;;;;;;5023344;22;20236;-83
2021/05/06 10:58:41;;;;;;;2.97;2.65;;;9.60;99.90;;;;;;5062147;28;20209;-84
2021/05/06 11:01:22;;;;;;;1.98;1.88;;;9.60;99.90;;;;;;5061671;28;20680;-86
2021/05/06 11:04:09;;;;;;;2.00;1.80;;;9.70;99.90;;;;;;5061242;28;20206;-84
2021/05/06 11:06:45;;;;;;;1.60;1.50;;;9.80;99.90;;;;;;5061082;28;20262;-83
2021/05/06 11:10:03;;;;;;;4.03;1.73;;;10.00;99.90;;;;;;5061373;28;20242;-84
2021/05/06 11:12:40;;;;;;;3.33;1.63;;;10.20;99.90;;;;;;5061092;28;20619;-83
2021/05/06 11:15:30;;;;;;;1.90;1.70;;;10.50;99.90;;;;;;5060925;28;20543;-82
2021/05/06 11:17:58;;;;;;;2.37;2.27;;;10.60;99.90;;;;;;5060887;28;20814;-82
2021/05/06 11:20:51;;;;;;;2.23;2.07;;;10.70;99.90;;;;;;5059993;28;20441;-82
2021/05/06 11:23:29;;;;;;;1.77;1.67;;;11.00;99.90;;;;;;5060969;28;20446;-84
2021/05/06 11:26:23;;;;;;;1.70;1.60;;;11.40;99.90;;;;;;5061603;28;20467;-83
2021/05/06 11:29:04;;;;;;;1.80;1.70;;;11.60;99.90;;;;;;5059881;28;20447;-81
2021/05/06 11:31:57;;;;;;;1.73;1.17;;;11.90;99.90;;;;;;5059840;28;20467;-84
2021/05/06 11:34:52;;;;;;;1.43;1.33;;;12.00;99.90;;;;;;5060757;28;20879;-83
2021/05/06 11:37:29;;;;;;;1.00;0.90;;;12.00;99.90;;;;;;5060914;28;20431;-83
2021/05/06 11:39:57;;;;;;;1.37;1.30;;;12.00;99.30;;;;;;5061133;28;20455;-83
2021/05/06 11:42:59;;;;;;;1.47;1.37;;;12.10;99.00;;;;;;5060848;28;20521;-83
2021/05/06 11:45:34;;;;;;;1.37;1.27;;;12.30;99.30;;;;;;5061841;28;20467;-84
2021/05/06 11:48:04;;;;;;;0.90;0.90;;;12.50;98.10;;;;;;5061385;28;20435;-83
2021/05/06 11:50:33;;;;;;;1.43;0.80;;;12.60;97.40;;;;;;5060169;28;20451;-81
2021/05/06 11:53:01;;;;;;;2.60;0.90;;;12.60;97.10;;;;;;5060036;28;20526;-83
2021/05/06 11:55:30;;;;;;;0.93;0.93;;;12.60;97.30;;;;;;5059801;28;21062;-83
2021/05/06 11:57:56;;;;;;;1.23;1.13;;;12.60;97.20;;;;;;5060620;28;20493;-84
2021/05/06 12:00:24;;;;;;;1.10;1.10;;;12.50;96.70;;;;;;5061811;28;20795;-84
2021/05/06 12:02:55;;;;;;;1.53;1.47;;;12.20;97.10;;;;;;5060716;28;20476;-84
2021/05/06 12:05:23;;;;;;;1.00;0.90;;;12.20;97.70;;;;;;5060916;28;20484;-84
2021/05/06 12:08:02;;;;;;;1.23;1.13;;;12.10;97.90;;;;;;5063823;28;20548;-84
2021/05/06 12:10:29;;;;;;;1.33;1.03;;;12.10;98.10;;;;;;5064767;28;20205;-85
2021/05/06 12:13:02;;;;;;;1.07;0.97;;;11.90;98.10;;;;;;5065250;28;20549;-82
2021/05/06 12:15:30;;;;;;;1.23;1.13;;;11.90;98.10;;;;;;5068729;28;20478;-85
2021/05/06 12:18:21;;;;;;;1.20;1.20;;;11.90;98.10;;;;;;5065203;28;20453;-84
2021/05/06 12:20:54;;;;;;;1.30;1.30;;;11.80;98.40;;;;;;5061694;28;20517;-81
2021/05/06 12:23:21;;;;;;;1.00;1.00;;;11.70;98.50;;;;;;5065833;28;20448;-84
2021/05/06 12:25:47;;;;;;;1.03;1.03;;;11.70;98.70;;;;;;5062710;28;20492;-87
2021/05/06 12:28:14;;;;;;;1.50;1.40;;;11.60;98.20;;;;;;5063470;28;20447;-82
2021/05/06 12:30:40;;;;;;;1.23;1.13;;;11.40;98.20;;;;;;5061264;28;20450;-84
2021/05/06 12:33:07;;;;;;;1.10;1.10;;;11.30;98.60;;;;;;5061191;28;20506;-85
2021/05/06 12:35:47;;;;;;;1.20;1.10;;;11.20;99.20;;;;;;5061785;28;20475;-82
2021/05/06 12:38:49;;;;;;;1.10;1.10;;;11.10;99.90;;;;;;5061718;28;20458;-82
2021/05/06 12:41:22;;;;;;;1.15;1.08;;;11.10;99.90;;;;;;5060682;28;20515;-82
2021/05/06 12:43:53;;;;;;;2.50;1.27;;;11.00;99.90;;;;;;5060994;28;20282;-84
2021/05/06 12:46:27;;;;;;;1.70;1.37;;;11.00;99.90;;;;;;5059627;28;21182;-81
2021/05/06 12:49:03;;;;;;;1.60;1.50;;;10.90;99.90;;;;;;5059862;28;20460;-83
2021/05/06 12:51:36;;;;;;;1.83;1.73;;;10.80;99.90;;;;;;5059965;28;20462;-82
2021/05/06 12:54:17;;;;;;;1.57;1.47;;;10.60;99.90;;;;;;5060764;28;20490;-84
2021/05/06 12:57:08;;;;;;;1.48;1.38;;;10.60;99.90;;;;;;5061136;28;20508;-83
2021/05/06 13:03:07;;;;;;;1.33;1.30;;;10.50;99.90;;;;;;5037118;28;20437;-83
2021/05/06 13:05:43;;;;;;;5.17;2.13;;;10.40;99.90;;;;;;5059223;28;20896;-84
2021/05/06 13:08:21;;;;;;;2.28;2.08;;;10.40;99.90;;;;;;5058869;28;20939;-83
2021/05/06 13:10:56;;;;;;;1.60;1.50;;;10.40;99.90;;;;;;5059969;28;20228;-83
2021/05/06 13:13:47;;;;;;;2.42;2.00;;;10.40;99.90;;;;;;5059722;28;20500;-82
2021/05/06 13:17:11;;;;;;;2.05;1.95;;;10.40;99.90;;;;;;5002061;28;20280;-82
2021/05/06 13:19:49;;;;;;;1.73;1.63;;;10.40;99.90;;;;;;5024607;28;20207;-85
2021/05/06 13:22:16;;;;;;;2.63;1.67;;;10.40;99.90;;;;;;5058062;28;20729;-83
2021/05/06 13:24:45;;;;;;;2.67;1.80;;;10.30;99.90;;;;;;5058895;28;20538;-82
2021/05/06 13:27:16;;;;;;;2.30;2.03;;;10.20;99.90;;;;;;5057985;28;20247;-82
2021/05/06 13:29:48;;;;;;;3.83;2.75;;;10.20;99.90;;;;;;5057458;28;20228;-82
2021/05/06 13:32:14;;;;;;;7.22;2.95;;;10.20;99.90;;;;;;5058548;28;20211;-83
2021/05/06 13:34:55;;;;;;;3.33;3.13;;;10.20;99.90;;;;;;5058227;28;20234;-79
2021/05/06 13:37:36;;;;;;;2.60;2.40;;;10.20;99.90;;;;;;5058832;28;20286;-82
2021/05/06 13:40:04;;;;;;;2.67;2.47;;;10.20;99.90;;;;;;5061846;28;20237;-79
2021/05/06 13:42:43;;;;;;;3.92;2.67;;;10.20;99.90;;;;;;5067624;28;20207;-79
2021/05/06 13:45:11;;;;;;;3.92;3.35;;;10.20;99.90;;;;;;5057270;28;20226;-81
2021/05/06 13:47:47;;;;;;;3.15;2.80;;;10.30;99.90;;;;;;5063734;28;20217;-82
2021/05/06 13:50:18;;;;;;;4.47;2.70;;;10.40;99.90;;;;;;5056974;28;20690;-83
2021/05/06 13:52:50;;;;;;;3.80;3.37;;;10.30;99.90;;;;;;5060537;28;20572;-83
2021/05/06 13:55:17;;;;;;;4.45;3.15;;;10.30;99.90;;;;;;5059135;28;20523;-82
2021/05/06 13:57:47;;;;;;;4.20;3.20;;;10.40;99.90;;;;;;5057572;28;20230;-81
2021/05/06 14:00:15;;;;;;;6.65;3.65;;;10.40;99.90;;;;;;5059058;28;20215;-82
2021/05/06 14:02:41;;;;;;;3.75;3.50;;;10.40;99.90;;;;;;5058597;28;20217;-81
2021/05/06 14:05:09;;;;;;;2.20;2.08;;;10.40;99.90;;;;;;5060711;28;20587;-84
2021/05/06 14:07:35;;;;;;;1.98;1.80;;;10.40;99.90;;;;;;5062685;28;20655;-82
2021/05/06 14:10:03;;;;;;;1.65;1.55;;;10.30;99.90;;;;;;5062301;28;20253;-84
2021/05/06 14:12:31;;;;;;;2.25;2.10;;;10.30;99.90;;;;;;5062705;28;20194;-84
2021/05/06 14:15:01;;;;;;;1.50;1.40;;;10.20;99.90;;;;;;5062218;28;20222;-83
2021/05/06 14:17:27;;;;;;;2.10;1.90;;;10.20;99.90;;;;;;5063116;28;20461;-83
2021/05/06 14:19:54;;;;;;;2.78;2.05;;;10.20;99.90;;;;;;5064966;28;20207;-82
2021/05/06 14:22:20;;;;;;;2.22;1.85;;;10.10;99.90;;;;;;5063772;28;20219;-83
2021/05/06 14:24:47;;;;;;;3.95;2.17;;;10.00;99.90;;;;;;5063744;28;20258;-83
2021/05/06 14:27:15;;;;;;;2.38;2.28;;;10.00;99.90;;;;;;5063056;28;20568;-83
2021/05/06 14:36:16;;;;;;;1.20;1.10;;;9.70;99.90;;;;;;5021273;28;20232;-82
2021/05/06 14:41:58;;;;;;;1.30;1.20;;;9.50;99.90;;;;;;5061411;28;20253;-81
2021/05/06 14:44:35;;;;;;;3.05;1.48;;;9.40;99.90;;;;;;5062509;28;20294;-83
2021/05/06 14:47:17;;;;;;;1.40;1.30;;;9.40;99.90;;;;;;5061945;28;20197;-82
2021/05/06 14:49:55;;;;;;;1.90;1.50;;;9.30;99.90;;;;;;5061807;28;20209;-83
2021/05/06 14:52:29;;;;;;;0.85;0.85;;;9.30;99.90;;;;;;5061795;28;20228;-82
2021/05/06 14:55:13;;;;;;;1.15;0.90;;;9.20;99.90;;;;;;5062626;28;20693;-83
2021/05/06 14:57:50;;;;;;;1.10;1.00;;;9.20;99.90;;;;;;5063136;28;20395;-84
2021/05/06 15:03:22;;;;;;;1.48;1.38;;;9.30;99.90;;;;;;5061690;28;20209;-81
2021/05/06 15:09:38;;;;;;;1.83;1.48;;;9.30;99.90;;;;;;4967617;28;20295;-86
2021/05/06 15:12:13;;;;;;;1.98;1.88;;;9.40;99.90;;;;;;5000816;28;20212;-86
2021/05/06 15:15:00;;;;;;;2.35;1.52;;;9.50;99.90;;;;;;5061720;28;20714;-83
2021/05/06 15:20:24;;;;;;;2.40;1.85;;;9.70;99.90;;;;;;5058837;28;20213;-85
2021/05/06 15:23:00;;;;;;;1.27;1.27;;;9.70;99.90;;;;;;5061966;28;20204;-84
2021/05/06 15:25:27;;;;;;;1.25;1.20;;;9.80;99.90;;;;;;5062307;28;20252;-83
2021/05/06 15:27:53;;;;;;;2.88;1.67;;;9.80;99.90;;;;;;5061577;28;20207;-83
2021/05/06 15:30:21;;;;;;;1.75;1.38;;;9.90;99.90;;;;;;5061706;28;20220;-82
2021/05/06 15:32:48;;;;;;;2.10;1.60;;;10.00;99.90;;;;;;5062123;28;20587;-85
2021/05/06 15:35:17;;;;;;;2.00;1.88;;;10.00;99.90;;;;;;5062259;28;20243;-85
2021/05/06 15:37:44;;;;;;;2.15;1.63;;;10.00;99.90;;;;;;5062507;28;20572;-82
2021/05/06 15:40:16;;;;;;;1.95;1.85;;;10.00;99.90;;;;;;5061418;28;20218;-83
2021/05/06 15:43:16;;;;;;;;;;;;;;;;;;;;;
2021/05/06 15:45:50;;;;;;;1.50;1.40;;;9.90;99.90;;;;;;5063185;28;20222;-85
2021/05/06 15:48:42;;;;;;;1.60;1.50;;;9.80;99.90;;;;;;5063074;28;20294;-84
2021/05/06 15:51:14;;;;;;;2.05;1.95;;;9.80;99.90;;;;;;5057572;28;20775;-84
2021/05/06 15:53:42;;;;;;;2.47;1.55;;;9.80;99.90;;;;;;5061750;28;20234;-83
2021/05/06 15:56:11;;;;;;;2.88;2.15;;;9.70;99.90;;;;;;5061949;28;20237;-84
2021/05/06 15:58:39;;;;;;;3.00;2.25;;;9.80;99.90;;;;;;5061279;28;20233;-84
2021/05/06 16:01:06;;;;;;;3.08;1.77;;;9.70;99.90;;;;;;5061448;28;20271;-84
2021/05/06 16:03:35;;;;;;;3.80;3.50;;;9.70;99.90;;;;;;5061302;28;20537;-85
2021/05/06 16:06:03;;;;;;;2.90;2.70;;;9.70;99.90;;;;;;5061106;28;20223;-84
2021/05/06 16:08:29;;;;;;;5.35;3.20;;;9.70;99.90;;;;;;5062072;28;20198;-85
2021/05/06 16:10:55;;;;;;;3.35;3.05;;;9.70;99.90;;;;;;5061714;28;20203;-85
2021/05/06 16:13:23;;;;;;;5.85;3.67;;;9.80;99.90;;;;;;5061371;28;20248;-85
2021/05/06 16:15:50;;;;;;;4.57;4.18;;;9.80;99.90;;;;;;5061933;28;20289;-85
2021/05/06 16:18:21;;;;;;;3.97;3.55;;;9.90;99.90;;;;;;5061278;28;20197;-84
2021/05/06 16:20:48;;;;;;;3.90;3.60;;;9.90;99.90;;;;;;5061789;28;20202;-85
2021/05/06 16:23:14;;;;;;;4.87;3.27;;;9.90;99.90;;;;;;5061099;28;20667;-85
2021/05/06 16:25:41;;;;;;;2.30;2.20;;;10.00;99.90;;;;;;5060820;28;20485;-85
2021/05/06 16:28:09;;;;;;;2.33;2.13;;;10.10;99.90;;;;;;5058726;28;20202;-84
2021/05/06 16:30:36;;;;;;;3.08;2.78;;;10.20;99.90;;;;;;5058951;28;20228;-84
2021/05/06 16:33:06;;;;;;;3.33;3.03;;;10.30;99.90;;;;;;5061291;28;20229;-84
2021/05/06 16:35:35;;;;;;;2.37;2.17;;;10.70;99.90;;;;;;5058646;28;20224;-85
2021/05/06 16:38:19;;;;;;;2.03;1.73;;;11.20;99.90;;;;;;5064054;28;20512;-84
2021/05/06 16:40:52;;;;;;;1.97;1.73;;;11.60;99.90;;;;;;5063492;28;20480;-85
2021/05/06 16:43:49;;;;;;;2.20;2.10;;;11.70;99.90;;;;;;5064809;28;20537;-84
2021/05/06 16:52:41;;;;;;;2.20;2.10;;;11.70;99.90;;;;;;4979094;28;20585;-85
2021/05/06 16:55:23;;;;;;;2.20;2.00;;;11.40;99.90;;;;;;5073651;22;20547;-82
2021/05/06 16:57:49;;;;;;;2.00;1.90;;;11.20;99.90;;;;;;5014970;28;20571;-83
2021/05/06 17:00:16;;;;;;;3.10;2.37;;;11.10;99.90;;;;;;5026800;28;20448;-84